sensor_id;sensor_type;location;lat;lon;timestamp;temperature;humidity
3980;DHT22;2004;52.452;13.120;2023-02-01T00:07:37;4.80;99.90
3980;DHT22;2004;52.452;13.120;2023-02-01T00:15:27;4.80;99.90
3980;DHT22;2004;52.452;13.120;2023-02-01T00:23:18;4.80;99.90
3980;DHT22;2004;52.452;13.120;2023-02-01T00:31:09;4.80;99.90
3980;DHT22;2004;52.452;13.120;2023-02-01T00:38:59;4.90;99.90
3980;DHT22;2004;52.452;13.120;2023-02-01T00:46:50;4.70;99.90
3980;DHT22;2004;52.452;13.120;2023-02-01T00:54:40;4.60;99.90
3980;DHT22;2004;52.452;13.120;2023-02-01T01:02:31;4.50;99.90
3980;DHT22;2004;52.452;13.120;2023-02-01T01:10:22;4.40;99.90
3980;DHT22;2004;52.452;13.120;2023-02-01T01:18:12;4.40;99.90
3980;DHT22;2004;52.452;13.120;2023-02-01T01:26:11;4.40;99.90
3980;DHT22;2004;52.452;13.120;2023-02-01T01:34:02;4.40;99.90
3980;DHT22;2004;52.452;13.120;2023-02-01T01:41:53;4.50;99.90
3980;DHT22;2004;52.452;13.120;2023-02-01T01:49:44;4.60;99.90
3980;DHT22;2004;52.452;13.120;2023-02-01T01:57:42;4.70;99.90
3980;DHT22;2004;52.452;13.120;2023-02-01T02:05:34;4.70;99.90
3980;DHT22;2004;52.452;13.120;2023-02-01T02:13:33;4.70;99.90
3980;DHT22;2004;52.452;13.120;2023-02-01T02:46:14;4.60;99.90
3980;DHT22;2004;52.452;13.120;2023-02-01T02:54:29;4.70;99.90
3980;DHT22;2004;52.452;13.120;2023-02-01T03:02:37;4.80;99.90
3980;DHT22;2004;52.452;13.120;2023-02-01T03:19:27;4.80;99.90
3980;DHT22;2004;52.452;13.120;2023-02-01T03:27:34;4.80;99.90
3980;DHT22;2004;52.452;13.120;2023-02-01T03:35:30;4.80;99.90
3980;DHT22;2004;52.452;13.120;2023-02-01T03:43:23;4.80;99.90
3980;DHT22;2004;52.452;13.120;2023-02-01T03:51:19;4.80;99.90
3980;DHT22;2004;52.452;13.120;2023-02-01T03:59:12;4.90;99.90
3980;DHT22;2004;52.452;13.120;2023-02-01T04:07:03;4.90;99.90
3980;DHT22;2004;52.452;13.120;2023-02-01T04:14:54;5.00;99.90
3980;DHT22;2004;52.452;13.120;2023-02-01T04:22:45;5.00;99.90
3980;DHT22;2004;52.452;13.120;2023-02-01T04:30:35;5.00;99.90
3980;DHT22;2004;52.452;13.120;2023-02-01T04:38:26;5.00;99.90
3980;DHT22;2004;52.452;13.120;2023-02-01T04:46:17;5.10;99.90
3980;DHT22;2004;52.452;13.120;2023-02-01T04:54:09;5.10;99.90
3980;DHT22;2004;52.452;13.120;2023-02-01T05:02:01;5.20;99.90
3980;DHT22;2004;52.452;13.120;2023-02-01T05:09:52;5.20;99.90
3980;DHT22;2004;52.452;13.120;2023-02-01T05:17:42;5.30;99.90
3980;DHT22;2004;52.452;13.120;2023-02-01T05:25:33;5.30;99.90
3980;DHT22;2004;52.452;13.120;2023-02-01T05:33:24;5.30;99.90
3980;DHT22;2004;52.452;13.120;2023-02-01T05:41:14;5.30;99.90
3980;DHT22;2004;52.452;13.120;2023-02-01T05:49:05;5.30;99.90
3980;DHT22;2004;52.452;13.120;2023-02-01T05:56:55;5.30;99.90
3980;DHT22;2004;52.452;13.120;2023-02-01T06:04:46;5.20;99.90
3980;DHT22;2004;52.452;13.120;2023-02-01T06:12:36;5.20;99.90
3980;DHT22;2004;52.452;13.120;2023-02-01T06:20:27;5.20;99.90
3980;DHT22;2004;52.452;13.120;2023-02-01T06:28:18;5.20;99.90
3980;DHT22;2004;52.452;13.120;2023-02-01T06:36:10;5.20;99.90
3980;DHT22;2004;52.452;13.120;2023-02-01T06:44:28;5.20;99.90
3980;DHT22;2004;52.452;13.120;2023-02-01T06:52:18;5.20;99.90
3980;DHT22;2004;52.452;13.120;2023-02-01T07:00:09;5.10;99.90
3980;DHT22;2004;52.452;13.120;2023-02-01T07:08:00;5.20;99.90
3980;DHT22;2004;52.452;13.120;2023-02-01T07:15:50;5.20;99.90
3980;DHT22;2004;52.452;13.120;2023-02-01T07:23:41;5.10;99.90
3980;DHT22;2004;52.452;13.120;2023-02-01T07:31:31;5.10;99.90
3980;DHT22;2004;52.452;13.120;2023-02-01T07:39:22;5.00;99.90
3980;DHT22;2004;52.452;13.120;2023-02-01T07:47:12;4.90;99.90
3980;DHT22;2004;52.452;13.120;2023-02-01T07:55:03;4.70;99.90
3980;DHT22;2004;52.452;13.120;2023-02-01T08:02:54;4.50;99.90
3980;DHT22;2004;52.452;13.120;2023-02-01T08:10:44;4.40;99.90
3980;DHT22;2004;52.452;13.120;2023-02-01T08:18:37;4.30;99.90
3980;DHT22;2004;52.452;13.120;2023-02-01T08:26:27;4.30;99.90
3980;DHT22;2004;52.452;13.120;2023-02-01T08:34:18;4.20;99.90
3980;DHT22;2004;52.452;13.120;2023-02-01T08:42:09;4.20;99.90
3980;DHT22;2004;52.452;13.120;2023-02-01T08:50:19;4.20;99.90
3980;DHT22;2004;52.452;13.120;2023-02-01T08:58:10;4.20;99.90
3980;DHT22;2004;52.452;13.120;2023-02-01T09:06:09;4.10;99.90
3980;DHT22;2004;52.452;13.120;2023-02-01T09:14:00;4.10;99.90
3980;DHT22;2004;52.452;13.120;2023-02-01T09:21:50;4.00;99.90
3980;DHT22;2004;52.452;13.120;2023-02-01T09:29:41;4.00;99.90
3980;DHT22;2004;52.452;13.120;2023-02-01T09:37:32;4.00;99.90
3980;DHT22;2004;52.452;13.120;2023-02-01T09:53:32;4.10;99.90
3980;DHT22;2004;52.452;13.120;2023-02-01T10:01:26;4.10;99.90
3980;DHT22;2004;52.452;13.120;2023-02-01T10:09:28;4.10;99.90
3980;DHT22;2004;52.452;13.120;2023-02-01T10:25:26;4.20;99.90
3980;DHT22;2004;52.452;13.120;2023-02-01T10:33:24;4.30;99.90
3980;DHT22;2004;52.452;13.120;2023-02-01T10:41:17;4.30;99.90
3980;DHT22;2004;52.452;13.120;2023-02-01T10:49:16;4.50;99.90
3980;DHT22;2004;52.452;13.120;2023-02-01T10:57:09;4.50;99.90
3980;DHT22;2004;52.452;13.120;2023-02-01T11:05:04;4.70;99.90
3980;DHT22;2004;52.452;13.120;2023-02-01T11:12:55;4.90;99.90
3980;DHT22;2004;52.452;13.120;2023-02-01T11:20:47;5.00;99.90
3980;DHT22;2004;52.452;13.120;2023-02-01T11:28:50;5.20;99.90
3980;DHT22;2004;52.452;13.120;2023-02-01T11:36:41;5.40;99.90
3980;DHT22;2004;52.452;13.120;2023-02-01T11:44:37;5.60;99.90
3980;DHT22;2004;52.452;13.120;2023-02-01T11:52:56;5.60;99.90
3980;DHT22;2004;52.452;13.120;2023-02-01T12:00:59;5.70;99.90
3980;DHT22;2004;52.452;13.120;2023-02-01T12:09:12;5.80;99.90
3980;DHT22;2004;52.452;13.120;2023-02-01T12:34:46;6.20;99.90
3980;DHT22;2004;52.452;13.120;2023-02-01T12:42:43;6.20;99.90
3980;DHT22;2004;52.452;13.120;2023-02-01T12:50:49;6.20;99.90
3980;DHT22;2004;52.452;13.120;2023-02-01T12:58:42;6.20;99.90
3980;DHT22;2004;52.452;13.120;2023-02-01T13:06:43;6.20;99.90
3980;DHT22;2004;52.452;13.120;2023-02-01T13:14:46;6.20;99.90
3980;DHT22;2004;52.452;13.120;2023-02-01T13:22:40;6.30;99.90
3980;DHT22;2004;52.452;13.120;2023-02-01T13:30:45;6.30;99.90
3980;DHT22;2004;52.452;13.120;2023-02-01T13:38:57;6.30;99.90
3980;DHT22;2004;52.452;13.120;2023-02-01T13:46:54;6.30;99.90
3980;DHT22;2004;52.452;13.120;2023-02-01T13:54:46;6.40;99.90
3980;DHT22;2004;52.452;13.120;2023-02-01T14:10:58;6.40;99.90
3980;DHT22;2004;52.452;13.120;2023-02-01T14:18:56;6.40;99.90
3980;DHT22;2004;52.452;13.120;2023-02-01T14:26:49;6.30;99.90
3980;DHT22;2004;52.452;13.120;2023-02-01T14:42:48;6.30;99.90
3980;DHT22;2004;52.452;13.120;2023-02-01T14:50:42;6.30;99.90
3980;DHT22;2004;52.452;13.120;2023-02-01T15:06:37;6.10;99.90
3980;DHT22;2004;52.452;13.120;2023-02-01T15:14:31;5.60;99.90
3980;DHT22;2004;52.452;13.120;2023-02-01T15:22:22;5.30;99.90
3980;DHT22;2004;52.452;13.120;2023-02-01T15:30:17;5.00;99.90
3980;DHT22;2004;52.452;13.120;2023-02-01T15:46:17;4.70;99.90
3980;DHT22;2004;52.452;13.120;2023-02-01T15:54:28;4.50;99.90
3980;DHT22;2004;52.452;13.120;2023-02-01T16:10:26;4.30;99.90
3980;DHT22;2004;52.452;13.120;2023-02-01T16:18:17;4.00;99.90
3980;DHT22;2004;52.452;13.120;2023-02-01T16:26:07;3.60;99.90
3980;DHT22;2004;52.452;13.120;2023-02-01T16:33:58;3.30;99.90
3980;DHT22;2004;52.452;13.120;2023-02-01T16:41:49;3.20;99.90
3980;DHT22;2004;52.452;13.120;2023-02-01T16:49:41;3.10;99.90
3980;DHT22;2004;52.452;13.120;2023-02-01T16:57:32;3.00;99.90
3980;DHT22;2004;52.452;13.120;2023-02-01T17:05:22;3.10;99.90
3980;DHT22;2004;52.452;13.120;2023-02-01T17:13:14;3.10;99.90
3980;DHT22;2004;52.452;13.120;2023-02-01T17:21:05;3.30;99.90
3980;DHT22;2004;52.452;13.120;2023-02-01T17:28:56;3.40;99.90
3980;DHT22;2004;52.452;13.120;2023-02-01T17:36:47;3.40;99.90
3980;DHT22;2004;52.452;13.120;2023-02-01T17:44:37;3.50;99.90
3980;DHT22;2004;52.452;13.120;2023-02-01T17:52:28;3.50;99.90
3980;DHT22;2004;52.452;13.120;2023-02-01T18:00:19;3.60;99.90
3980;DHT22;2004;52.452;13.120;2023-02-01T18:08:10;3.70;99.90
3980;DHT22;2004;52.452;13.120;2023-02-01T18:16:01;3.70;99.90
3980;DHT22;2004;52.452;13.120;2023-02-01T18:23:54;3.80;99.90
3980;DHT22;2004;52.452;13.120;2023-02-01T18:31:46;3.80;99.90
3980;DHT22;2004;52.452;13.120;2023-02-01T18:39:37;3.90;99.90
3980;DHT22;2004;52.452;13.120;2023-02-01T18:47:28;3.90;99.90
3980;DHT22;2004;52.452;13.120;2023-02-01T18:55:19;3.90;99.90
3980;DHT22;2004;52.452;13.120;2023-02-01T19:03:13;3.90;99.90
3980;DHT22;2004;52.452;13.120;2023-02-01T19:11:05;4.00;99.90
3980;DHT22;2004;52.452;13.120;2023-02-01T19:18:58;4.00;99.90
3980;DHT22;2004;52.452;13.120;2023-02-01T19:26:48;4.00;99.90
3980;DHT22;2004;52.452;13.120;2023-02-01T19:34:40;4.10;99.90
3980;DHT22;2004;52.452;13.120;2023-02-01T19:42:31;4.10;99.90
3980;DHT22;2004;52.452;13.120;2023-02-01T19:50:22;4.00;99.90
3980;DHT22;2004;52.452;13.120;2023-02-01T19:58:12;4.00;99.90
3980;DHT22;2004;52.452;13.120;2023-02-01T20:06:03;3.90;99.90
3980;DHT22;2004;52.452;13.120;2023-02-01T20:13:56;3.90;99.90
3980;DHT22;2004;52.452;13.120;2023-02-01T20:21:48;4.00;99.90
3980;DHT22;2004;52.452;13.120;2023-02-01T20:29:39;3.90;99.90
3980;DHT22;2004;52.452;13.120;2023-02-01T20:37:30;3.90;99.90
3980;DHT22;2004;52.452;13.120;2023-02-01T20:45:21;3.90;99.90
3980;DHT22;2004;52.452;13.120;2023-02-01T20:53:11;3.90;99.90
3980;DHT22;2004;52.452;13.120;2023-02-01T21:01:02;3.80;99.90
3980;DHT22;2004;52.452;13.120;2023-02-01T21:08:52;3.80;99.90
3980;DHT22;2004;52.452;13.120;2023-02-01T21:16:43;3.80;99.90
3980;DHT22;2004;52.452;13.120;2023-02-01T21:24:33;3.80;99.90
3980;DHT22;2004;52.452;13.120;2023-02-01T21:32:24;3.70;99.90
3980;DHT22;2004;52.452;13.120;2023-02-01T21:40:14;3.70;99.90
3980;DHT22;2004;52.452;13.120;2023-02-01T21:48:05;3.70;99.90
3980;DHT22;2004;52.452;13.120;2023-02-01T21:55:56;3.70;99.90
3980;DHT22;2004;52.452;13.120;2023-02-01T22:03:46;3.70;99.90
3980;DHT22;2004;52.452;13.120;2023-02-01T22:11:38;3.70;99.90
3980;DHT22;2004;52.452;13.120;2023-02-01T22:19:28;3.70;99.90
3980;DHT22;2004;52.452;13.120;2023-02-01T22:27:19;3.80;99.90
3980;DHT22;2004;52.452;13.120;2023-02-01T22:35:09;3.80;99.90
3980;DHT22;2004;52.452;13.120;2023-02-01T22:43:00;3.80;99.90
3980;DHT22;2004;52.452;13.120;2023-02-01T22:50:50;3.90;99.90
3980;DHT22;2004;52.452;13.120;2023-02-01T22:58:41;4.00;99.90
3980;DHT22;2004;52.452;13.120;2023-02-01T23:06:32;4.00;99.90
3980;DHT22;2004;52.452;13.120;2023-02-01T23:14:23;4.10;99.90
3980;DHT22;2004;52.452;13.120;2023-02-01T23:22:13;4.10;99.90
3980;DHT22;2004;52.452;13.120;2023-02-01T23:30:05;4.20;99.90
3980;DHT22;2004;52.452;13.120;2023-02-01T23:37:55;4.20;99.90
3980;DHT22;2004;52.452;13.120;2023-02-01T23:45:46;4.30;99.90
3980;DHT22;2004;52.452;13.120;2023-02-01T23:53:36;4.40;99.90
